createdAt,value
2018-11-05T00:03:44.113Z,24.20
2018-11-05T00:08:35.008Z,24.13
2018-11-05T00:13:25.900Z,24.93
2018-11-05T00:18:16.795Z,24.07
2018-11-05T00:23:07.695Z,24.03
2018-11-05T00:27:58.621Z,26.73
2018-11-05T00:32:49.556Z,25.50
2018-11-05T00:37:40.472Z,26.33
2018-11-05T00:42:31.371Z,26.57
2018-11-05T00:47:22.284Z,25.97
2018-11-05T00:52:13.192Z,26.90
2018-11-05T00:57:04.119Z,27.30
2018-11-05T01:01:55.829Z,28.10
2018-11-05T01:06:46.828Z,26.17
2018-11-05T01:11:37.729Z,28.53
2018-11-05T01:16:29.428Z,26.77
2018-11-05T01:21:20.339Z,26.70
2018-11-05T01:26:11.246Z,24.60
2018-11-05T01:31:02.156Z,26.10
2018-11-05T01:35:53.805Z,25.73
2018-11-05T01:40:45.469Z,27.40
2018-11-05T01:45:36.383Z,29.30
2018-11-05T01:50:27.284Z,29.53
2018-11-05T01:55:18.209Z,27.40
2018-11-05T02:00:09.095Z,29.83
2018-11-05T02:05:01.472Z,29.13
2018-11-05T02:09:52.396Z,29.10
2018-11-05T02:14:43.299Z,28.80
2018-11-05T02:19:34.205Z,29.90
2018-11-05T02:24:25.101Z,29.73
2018-11-05T02:29:16.004Z,29.80
2018-11-05T02:34:06.902Z,30.60
2018-11-05T02:38:57.803Z,31.37
2018-11-05T02:43:48.709Z,31.93
2018-11-05T02:48:39.629Z,32.23
2018-11-05T02:53:31.286Z,33.30
2018-11-05T02:58:22.263Z,31.67
2018-11-05T03:03:14.022Z,33.90
2018-11-05T03:08:04.897Z,31.77
2018-11-05T03:17:51.940Z,33.97
2018-11-05T03:22:43.577Z,34.07
2018-11-05T03:27:34.537Z,33.10
2018-11-05T03:32:26.205Z,34.13
2018-11-05T03:37:17.121Z,35.57
2018-11-05T03:42:08.100Z,35.77
2018-11-05T03:46:59.006Z,36.00
2018-11-05T03:51:49.925Z,36.43
2018-11-05T03:56:41.604Z,35.07
2018-11-05T04:01:32.552Z,35.87
2018-11-05T04:06:23.454Z,37.70
2018-11-05T04:11:14.376Z,36.87
2018-11-05T04:16:05.440Z,38.83
2018-11-05T04:20:56.325Z,38.50
2018-11-05T04:25:47.985Z,40.70
2018-11-05T04:30:38.897Z,39.20
2018-11-05T04:35:29.854Z,39.03
2018-11-05T04:40:20.757Z,38.73
2018-11-05T04:45:11.702Z,39.70
2018-11-05T04:50:02.587Z,39.87
2018-11-05T04:54:53.522Z,37.40
2018-11-05T04:59:45.161Z,40.50
2018-11-05T05:04:36.061Z,39.00
2018-11-05T05:09:26.970Z,38.40
2018-11-05T05:14:17.943Z,39.80
2018-11-05T05:19:08.876Z,37.87
2018-11-05T05:23:59.774Z,39.13
2018-11-05T05:28:50.697Z,39.77
2018-11-05T05:33:41.665Z,38.90
2018-11-05T05:38:32.549Z,37.93
2018-11-05T05:43:23.466Z,37.10
2018-11-05T05:48:14.364Z,39.10
2018-11-05T05:53:05.305Z,38.57
2018-11-05T05:57:56.241Z,39.37
2018-11-05T06:02:47.134Z,37.13
2018-11-05T06:07:38.042Z,37.87
2018-11-05T06:12:28.986Z,39.37
2018-11-05T06:17:19.902Z,39.10
2018-11-05T06:22:11.558Z,37.77
2018-11-05T06:27:02.461Z,38.57
2018-11-05T06:31:53.432Z,36.57
2018-11-05T06:36:44.347Z,39.27
2018-11-05T06:41:35.315Z,38.93
2018-11-05T06:46:26.928Z,38.40
2018-11-05T06:51:17.826Z,37.50
2018-11-05T06:56:08.775Z,37.13
2018-11-05T07:00:59.705Z,39.10
2018-11-05T07:05:51.425Z,37.27
2018-11-05T07:10:42.374Z,38.07
2018-11-05T07:15:33.309Z,37.07
2018-11-05T07:20:24.192Z,39.50
2018-11-05T07:25:15.125Z,36.93
2018-11-05T07:30:06.036Z,37.53
2018-11-05T07:34:56.950Z,36.70
2018-11-05T07:39:47.899Z,38.70
2018-11-05T07:44:38.811Z,36.60
2018-11-05T07:49:29.713Z,37.97
2018-11-05T07:54:21.352Z,37.70
2018-11-05T07:59:12.284Z,36.53
2018-11-05T08:04:03.928Z,37.70
2018-11-05T08:08:54.828Z,39.33
2018-11-05T08:13:45.775Z,39.10
2018-11-05T08:18:36.661Z,40.20
2018-11-05T08:23:27.563Z,40.50
2018-11-05T08:28:18.463Z,39.10
2018-11-05T08:33:09.376Z,37.37
2018-11-05T08:38:01.045Z,37.60
2018-11-05T08:42:52.012Z,38.70
2018-11-05T08:47:42.941Z,38.27
2018-11-05T08:52:33.878Z,37.40
2018-11-05T08:57:25.573Z,36.20
2018-11-05T09:02:16.487Z,41.20
2018-11-05T09:07:07.458Z,40.50
2018-11-05T09:11:58.396Z,34.90
2018-11-05T09:16:50.045Z,38.60
2018-11-05T09:21:41.015Z,39.90
2018-11-05T09:26:31.915Z,38.07
2018-11-05T09:31:22.825Z,40.57
2018-11-05T09:36:14.485Z,37.77
2018-11-05T09:41:06.144Z,38.63
2018-11-05T09:45:57.101Z,40.43
2018-11-05T09:50:49.060Z,39.03
2018-11-05T09:55:40.565Z,39.60
2018-11-05T10:00:32.124Z,35.57
2018-11-05T10:05:23.060Z,38.30
2018-11-05T10:10:13.983Z,39.90
2018-11-05T10:15:05.052Z,37.70
2018-11-05T10:19:56.046Z,39.03
2018-11-05T10:24:47.076Z,36.60
2018-11-05T10:29:37.865Z,38.67
2018-11-05T10:34:28.757Z,38.67
2018-11-05T10:39:19.671Z,40.47
2018-11-05T10:44:10.580Z,38.10
2018-11-05T10:49:02.247Z,39.80
2018-11-05T10:53:53.176Z,39.53
2018-11-05T10:58:44.090Z,37.97
2018-11-05T11:03:35.012Z,38.20
2018-11-05T11:08:25.921Z,38.23
2018-11-05T11:13:16.869Z,37.73
2018-11-05T11:18:07.769Z,37.60
2018-11-05T11:22:58.720Z,36.50
2018-11-05T11:27:49.721Z,36.40
2018-11-05T11:32:41.297Z,36.73
2018-11-05T11:37:32.209Z,39.10
2018-11-05T11:42:23.203Z,37.33
2018-11-05T11:47:14.056Z,37.30
2018-11-05T11:52:04.957Z,35.97
2018-11-05T11:56:55.870Z,35.40
2018-11-05T12:01:46.819Z,36.60
2018-11-05T12:06:37.720Z,35.10
2018-11-05T12:11:28.618Z,34.03
2018-11-05T12:16:19.574Z,33.13
2018-11-05T12:21:10.486Z,32.60
2018-11-05T12:26:01.397Z,34.87
2018-11-05T12:30:53.089Z,32.30
2018-11-05T12:35:43.996Z,33.20
2018-11-05T12:40:34.936Z,34.27
2018-11-05T12:45:26.584Z,32.83
2018-11-05T12:50:17.511Z,32.73
2018-11-05T12:55:09.186Z,29.67
2018-11-05T13:00:00.121Z,32.70
2018-11-05T13:04:51.036Z,31.00
2018-11-05T13:09:41.941Z,30.50
2018-11-05T13:14:33.589Z,31.80
2018-11-05T13:19:24.515Z,30.07
2018-11-05T13:24:15.476Z,31.73
2018-11-05T13:29:06.398Z,30.13
2018-11-05T13:33:58.085Z,30.50
2018-11-05T13:38:49.731Z,29.53
2018-11-05T13:43:40.651Z,29.50
2018-11-05T13:48:32.076Z,29.13
2018-11-05T13:53:22.518Z,27.90
2018-11-05T13:58:14.221Z,28.43
2018-11-05T14:03:05.100Z,27.90
2018-11-05T14:07:56.796Z,28.10
2018-11-05T14:12:47.794Z,28.70
2018-11-05T14:17:38.600Z,27.23
2018-11-05T14:22:29.679Z,28.27
2018-11-05T14:27:20.755Z,27.47
2018-11-05T14:32:11.622Z,27.83
2018-11-05T14:37:03.249Z,26.13
2018-11-05T14:41:54.144Z,26.60
2018-11-05T14:46:45.807Z,27.93
2018-11-05T14:51:36.768Z,28.47
2018-11-05T14:56:27.733Z,28.00
2018-11-05T15:01:19.061Z,27.30
2018-11-05T15:06:09.961Z,29.53
2018-11-05T15:11:00.923Z,25.87
2018-11-05T15:15:51.835Z,28.23
2018-11-05T15:20:42.729Z,28.03
2018-11-05T15:25:33.751Z,27.23
2018-11-05T15:30:24.593Z,27.97
2018-11-05T15:35:15.481Z,26.27
2018-11-05T15:40:06.374Z,28.10
2018-11-05T15:44:58.049Z,26.73
2018-11-05T15:49:48.947Z,27.30
2018-11-05T15:54:39.865Z,26.93
2018-11-05T15:59:31.508Z,27.17
2018-11-05T16:04:22.482Z,27.30
2018-11-05T16:09:13.330Z,25.97
2018-11-05T16:14:04.235Z,25.30
2018-11-05T16:18:55.147Z,25.90
2018-11-05T16:23:46.099Z,26.00
2018-11-05T16:28:36.981Z,26.47
2018-11-05T16:33:27.900Z,26.37
2018-11-05T16:38:18.820Z,25.70
2018-11-05T16:43:09.725Z,23.50
2018-11-05T16:48:00.642Z,24.17
2018-11-05T16:52:52.310Z,25.30
2018-11-05T16:57:43.241Z,24.37
2018-11-05T17:02:35.075Z,25.23
2018-11-05T17:07:25.852Z,23.30
2018-11-05T17:12:16.994Z,24.13
2018-11-05T17:17:07.952Z,22.50
2018-11-05T17:21:58.884Z,22.77
2018-11-05T17:26:49.793Z,22.00
2018-11-05T17:31:40.726Z,23.67
2018-11-05T17:36:32.408Z,23.80
2018-11-05T17:41:24.060Z,24.30
2018-11-05T17:46:14.966Z,22.80
2018-11-05T17:51:05.982Z,21.87
2018-11-05T17:55:56.901Z,22.73
2018-11-05T18:00:47.825Z,22.50
2018-11-05T18:05:39.501Z,21.53
2018-11-05T18:10:30.431Z,22.40
2018-11-05T18:15:21.357Z,22.70
2018-11-05T18:20:13.102Z,21.20
2018-11-05T18:25:04.014Z,21.60
2018-11-05T18:29:54.931Z,22.43
2018-11-05T18:34:45.928Z,21.37
2018-11-05T18:39:36.853Z,21.77
2018-11-05T18:44:28.537Z,21.27
2018-11-05T18:49:20.217Z,22.17
2018-11-05T18:54:11.173Z,22.50
2018-11-05T18:59:02.094Z,21.23
2018-11-05T19:03:53.146Z,21.20
2018-11-05T19:08:43.930Z,21.90
2018-11-05T19:13:34.833Z,20.23
2018-11-05T19:18:26.527Z,21.50
2018-11-05T19:23:17.615Z,21.03
2018-11-05T19:28:08.538Z,21.43
2018-11-05T19:32:59.497Z,21.70
2018-11-05T19:37:52.211Z,22.30
2018-11-05T19:42:43.380Z,21.10
2018-11-05T19:47:34.065Z,22.10
2018-11-05T19:52:24.962Z,20.83
2018-11-05T19:57:15.861Z,22.67
2018-11-05T20:02:06.853Z,21.30
2018-11-05T20:06:59.670Z,20.40
2018-11-05T20:11:50.584Z,20.50
2018-11-05T20:16:42.305Z,21.10
2018-11-05T20:21:34.620Z,20.40
2018-11-05T20:26:25.537Z,21.43
2018-11-05T20:31:16.685Z,20.53
2018-11-05T20:36:07.476Z,20.40
2018-11-05T20:40:58.385Z,20.27
2018-11-05T20:45:49.324Z,20.63
2018-11-05T22:10:36.114Z,17.87
2018-11-05T22:15:27.171Z,19.17
2018-11-05T22:20:18.231Z,19.83
2018-11-05T22:25:09.182Z,18.13
2018-11-05T22:30:00.813Z,19.00
2018-11-05T22:34:51.729Z,18.00
2018-11-05T22:39:42.695Z,19.20
2018-11-05T22:44:34.339Z,19.60
2018-11-05T22:49:25.252Z,18.00
2018-11-05T22:54:16.173Z,18.80
2018-11-05T22:59:07.916Z,17.47
2018-11-05T23:03:58.824Z,19.40
2018-11-05T23:08:49.728Z,17.70
2018-11-05T23:13:40.632Z,18.10
2018-11-05T23:18:31.546Z,18.97
2018-11-05T23:23:23.244Z,17.60
2018-11-05T23:28:14.172Z,16.90
2018-11-05T23:33:05.827Z,16.70
2018-11-05T23:37:56.755Z,17.60
2018-11-05T23:42:47.678Z,17.77
2018-11-05T23:47:38.584Z,16.47
2018-11-05T23:52:29.516Z,17.03
2018-11-05T23:57:20.443Z,17.37
